createdAt,value
2019-03-21T00:00:03.391Z,-0.9
2019-03-21T00:15:02.659Z,-0.9
2019-03-21T00:30:03.052Z,-0.9
2019-03-21T00:45:03.376Z,-1
2019-03-21T01:00:02.683Z,-1.5
2019-03-21T01:15:02.988Z,-1.1
2019-03-21T01:30:03.401Z,-1.5
2019-03-21T01:45:02.619Z,-1.6
2019-03-21T02:00:02.506Z,-1.6
2019-03-21T02:15:02.822Z,-1.9
2019-03-21T02:30:03.297Z,-1.8
2019-03-21T02:45:08.076Z,-1.9
2019-03-21T03:00:02.834Z,-2.1
2019-03-21T03:15:03.157Z,-1.8
2019-03-21T03:30:02.519Z,-2.1
2019-03-21T03:45:02.933Z,-2.4
2019-03-21T04:00:03.167Z,-2.3
2019-03-21T04:15:02.454Z,-2.1
2019-03-21T04:30:02.847Z,-2.8
2019-03-21T04:45:03.219Z,-2.8
2019-03-21T05:00:03.740Z,-2.8
2019-03-21T05:15:03.303Z,-3
2019-03-21T05:30:02.678Z,-2.8
2019-03-21T05:45:02.945Z,-2.9
2019-03-21T06:00:03.444Z,-2.5
2019-03-21T06:15:02.943Z,-2.2
2019-03-21T06:30:02.755Z,-1.7
2019-03-21T06:45:02.998Z,-1.1
2019-03-21T07:00:03.356Z,-0.5
2019-03-21T07:15:04.431Z,0.2
2019-03-21T07:30:03.001Z,1.1
2019-03-21T07:45:03.205Z,1.9
2019-03-21T08:00:02.575Z,2.9
2019-03-21T08:15:03.065Z,4
2019-03-21T08:30:03.353Z,4.5
2019-03-21T08:45:02.654Z,5.8
2019-03-21T09:00:02.862Z,6.5
2019-03-21T09:15:03.289Z,7.6
2019-03-21T09:30:03.023Z,8
2019-03-21T09:45:03.178Z,8.5
2019-03-21T10:00:03.694Z,9.2
2019-03-21T10:15:03.031Z,9.8
2019-03-21T10:30:03.434Z,10.1
2019-03-21T10:45:02.767Z,10.9
2019-03-21T11:00:02.954Z,11
2019-03-21T11:15:03.157Z,11.5
2019-03-21T11:30:02.577Z,11.4
2019-03-21T11:45:02.706Z,11.8
2019-03-21T12:00:02.958Z,12.6
2019-03-21T12:15:02.531Z,12.6
2019-03-21T12:30:03.145Z,12.8
2019-03-21T12:45:03.460Z,13
2019-03-21T13:00:02.765Z,13.3
2019-03-21T13:15:03.017Z,12.8
2019-03-21T13:30:03.802Z,12.8
2019-03-21T13:45:02.922Z,13.4
2019-03-21T14:00:03.141Z,13
2019-03-21T14:15:02.410Z,12.7
2019-03-21T14:30:02.711Z,13.1
2019-03-21T14:45:03.063Z,13.2
2019-03-21T15:00:03.264Z,13.3
2019-03-21T15:15:02.686Z,12.9
2019-03-21T15:30:03.317Z,12.9
2019-03-21T15:45:15.835Z,12.9
2019-03-21T16:00:03.003Z,12.6
2019-03-21T16:15:02.806Z,12.4
2019-03-21T16:30:03.343Z,12
2019-03-21T16:45:02.664Z,11.5
2019-03-21T17:00:02.988Z,10.9
2019-03-21T17:15:03.296Z,9.9
2019-03-21T17:30:02.700Z,9.1
2019-03-21T17:45:03.061Z,8.3
2019-03-21T18:00:03.257Z,7.5
2019-03-21T18:15:02.565Z,6.9
2019-03-21T18:30:02.969Z,6.2
2019-03-21T18:45:02.419Z,5.9
2019-03-21T19:00:02.915Z,5.6
2019-03-21T19:15:02.558Z,4.9
2019-03-21T19:30:02.970Z,5
2019-03-21T19:45:03.375Z,4.2
2019-03-21T20:00:02.611Z,4.1
2019-03-21T20:15:07.935Z,3.5
2019-03-21T20:30:02.446Z,3.6
2019-03-21T20:45:02.808Z,3.1
2019-03-21T21:00:03.285Z,3.1
2019-03-21T21:15:02.647Z,2.4
2019-03-21T21:30:03.050Z,2.4
2019-03-21T21:45:03.391Z,2.2
2019-03-21T22:00:02.656Z,2.1
2019-03-21T22:15:02.965Z,1.7
2019-03-21T22:30:04.267Z,1.9
2019-03-21T22:45:03.144Z,1.6
2019-03-21T23:00:02.376Z,1
2019-03-21T23:15:02.726Z,0.9
2019-03-21T23:30:03.384Z,0.8
2019-03-21T23:45:02.666Z,0.6
